Terminal Aerodrome Forecast
Issued by NWS

Home | Current Version | Previous Version | Text Only | Print | Product List | Glossary On
Versions: 1 2 3 4 5 6 7 8 9 10 11 12 13 14 15 16 17 18 19 20 21 22 23 24 25 26 27 28
000
FTUS41 KBOX 161125
TAFFMH
TAF
KFMH 161125Z 1612/1712 00000KT P6SM SCT025
      TEMPO 1612/1614 BKN025 OVC030
     FM161400 23011G21KT P6SM FEW200
     FM161700 24017G28KT P6SM FEW250
     FM170000 27012G22KT P6SM FEW250
     FM170400 30011G21KT P6SM SKC
     FM171000 33010G18KT P6SM SKC=

USA.gov is the U.S. government's official web portal to all federal, state and local government web resources and services.